Time;durP1;ratioP1;P1;durP2;ratioP2;P2;SDS_P1;SDS_P2;PMS_P1;PMS_P2;Temp;Humidity;BMP_temperature;BMP_pressure;BME280_temperature;BME280_humidity;BME280_pressure;Samples;Min_cycle;Max_cycle;Signal;HPM_P1;HPM_P2
2023/10/12 00:00:28;;;;;;;0.10;0.10;;;21.40;45.30;;;;;;5092546;28;20194;-56
2023/10/12 00:03:00;;;;;;;0.00;0.00;;;21.40;45.50;;;;;;5113118;27;20245;-52
2023/10/12 00:05:34;;;;;;;0.00;0.00;;;21.50;45.60;;;;;;5112791;28;20300;-56
2023/10/12 00:08:10;;;;;;;0.10;0.10;;;21.50;45.70;;;;;;5133139;27;20185;-54
2023/10/12 00:10:44;;;;;;;0.00;0.00;;;21.50;45.80;;;;;;5101339;27;20221;-51
2023/10/12 00:13:20;;;;;;;0.00;0.00;;;21.60;46.00;;;;;;5092607;28;20696;-57
2023/10/12 00:15:55;;;;;;;0.00;0.00;;;21.60;46.00;;;;;;5093052;28;20218;-48
2023/10/12 00:18:26;;;;;;;0.00;0.00;;;21.70;46.10;;;;;;5091649;28;20186;-54
2023/10/12 00:20:56;;;;;;;0.00;0.00;;;21.70;46.20;;;;;;5092967;28;20206;-52
2023/10/12 00:23:27;;;;;;;0.00;0.00;;;21.70;46.20;;;;;;5103346;28;20194;-48
2023/10/12 00:25:59;;;;;;;0.00;0.00;;;21.70;46.30;;;;;;5097644;28;20220;-55
2023/10/12 00:28:38;;;;;;;0.10;0.10;;;21.80;46.40;;;;;;5112009;28;20559;-50
2023/10/12 00:31:17;;;;;;;0.00;0.00;;;21.80;46.50;;;;;;5111611;27;20220;-52
2023/10/12 00:33:52;;;;;;;0.00;0.00;;;21.90;46.60;;;;;;5112015;27;20196;-56
2023/10/12 00:36:24;;;;;;;0.10;0.10;;;21.90;46.60;;;;;;5102081;28;20284;-55
2023/10/12 00:38:56;;;;;;;0.03;0.03;;;22.00;46.50;;;;;;5112144;28;20565;-51
2023/10/12 00:41:29;;;;;;;0.05;0.05;;;22.00;46.50;;;;;;5111551;28;20224;-53
2023/10/12 00:44:09;;;;;;;0.00;0.00;;;22.00;46.50;;;;;;5111342;28;20612;-54
2023/10/12 00:46:58;;;;;;;0.00;0.00;;;22.10;46.40;;;;;;5112079;27;20186;-57
2023/10/12 00:49:32;;;;;;;0.10;0.10;;;22.10;46.40;;;;;;5101121;28;20198;-49
2023/10/12 00:52:21;;;;;;;0.00;0.00;;;22.10;46.30;;;;;;5100874;27;20314;-54
2023/10/12 00:54:56;;;;;;;0.00;0.00;;;22.20;46.30;;;;;;5111717;28;20213;-57
2023/10/12 00:57:26;;;;;;;0.00;0.00;;;22.20;46.20;;;;;;5110889;28;20189;-46
2023/10/12 00:59:57;;;;;;;0.00;0.00;;;22.20;46.20;;;;;;5111951;28;20204;-51
2023/10/12 01:02:39;;;;;;;0.10;0.10;;;22.20;46.20;;;;;;5111099;28;20571;-54
2023/10/12 01:05:11;;;;;;;0.03;0.03;;;22.30;46.20;;;;;;5111975;28;20210;-55
2023/10/12 01:07:42;;;;;;;0.00;0.00;;;22.30;46.20;;;;;;5110642;28;20189;-56
2023/10/12 01:10:13;;;;;;;0.00;0.00;;;22.30;46.20;;;;;;5111796;28;20217;-57
2023/10/12 01:12:45;;;;;;;0.00;0.00;;;22.30;46.20;;;;;;5112311;28;20288;-57
2023/10/12 01:15:17;;;;;;;0.00;0.00;;;22.30;46.20;;;;;;5098888;28;20221;-55
2023/10/12 01:17:51;;;;;;;0.00;0.00;;;22.40;46.20;;;;;;5104856;28;20208;-56
2023/10/12 01:20:26;;;;;;;0.00;0.00;;;22.40;46.20;;;;;;5110764;28;20203;-56
2023/10/12 01:22:59;;;;;;;0.00;0.00;;;22.40;46.20;;;;;;5111439;28;20273;-51
2023/10/12 01:25:30;;;;;;;0.00;0.00;;;22.40;46.20;;;;;;5109849;28;20213;-56
2023/10/12 01:28:06;;;;;;;0.00;0.00;;;22.40;45.90;;;;;;5118813;27;20189;-54
2023/10/12 01:30:39;;;;;;;0.00;0.00;;;22.30;45.90;;;;;;5093731;28;20229;-55
2023/10/12 01:33:09;;;;;;;0.08;0.08;;;22.30;46.00;;;;;;5107165;28;20189;-51
2023/10/12 01:35:48;;;;;;;0.00;0.00;;;22.30;46.10;;;;;;5110658;28;20214;-54
2023/10/12 01:38:21;;;;;;;0.00;0.00;;;22.30;46.20;;;;;;5111768;28;20191;-54
2023/10/12 01:40:55;;;;;;;0.00;0.00;;;22.20;46.20;;;;;;5111079;28;20672;-51
2023/10/12 01:43:28;;;;;;;0.00;0.00;;;22.20;46.30;;;;;;5100303;28;20194;-48
2023/10/12 01:46:06;;;;;;;0.00;0.00;;;22.20;46.30;;;;;;5093370;28;20208;-53
2023/10/12 01:48:37;;;;;;;0.00;0.00;;;22.20;46.30;;;;;;5109696;28;20237;-55
2023/10/12 01:51:14;;;;;;;0.00;0.00;;;22.20;46.30;;;;;;5110358;28;20225;-48
2023/10/12 01:53:49;;;;;;;0.00;0.00;;;22.20;46.30;;;;;;5110826;28;20193;-56
2023/10/12 01:56:20;;;;;;;0.00;0.00;;;22.20;46.40;;;;;;5092874;28;20213;-56
2023/10/12 01:58:51;;;;;;;0.00;0.00;;;22.30;46.40;;;;;;5094725;28;20190;-53
2023/10/12 02:01:22;;;;;;;0.00;0.00;;;22.20;46.40;;;;;;5111115;28;20248;-52
2023/10/12 02:03:56;;;;;;;0.10;0.10;;;22.30;46.40;;;;;;5131001;27;20196;-55
2023/10/12 02:06:28;;;;;;;0.10;0.10;;;22.30;46.40;;;;;;5131216;27;20231;-56
2023/10/12 02:09:08;;;;;;;0.00;0.00;;;22.20;46.40;;;;;;5090722;28;20247;-56
2023/10/12 02:11:43;;;;;;;0.00;0.00;;;22.20;46.40;;;;;;5091795;28;20253;-48
2023/10/12 02:14:22;;;;;;;0.00;0.00;;;22.30;46.40;;;;;;5110171;28;20193;-49
2023/10/12 02:16:55;;;;;;;0.00;0.00;;;22.20;46.30;;;;;;5105868;28;20203;-49
2023/10/12 02:19:37;;;;;;;0.00;0.00;;;22.30;46.40;;;;;;5108422;28;20313;-48
2023/10/12 02:22:18;;;;;;;0.00;0.00;;;22.20;46.40;;;;;;5111674;28;20281;-51
2023/10/12 02:25:01;;;;;;;0.00;0.00;;;22.30;46.40;;;;;;5114801;28;20324;-53
2023/10/12 02:27:33;;;;;;;0.00;0.00;;;22.30;46.40;;;;;;5111681;27;20185;-56
2023/10/12 02:30:06;;;;;;;0.00;0.00;;;22.30;46.30;;;;;;5136194;27;20249;-51
2023/10/12 02:32:46;;;;;;;0.10;0.10;;;22.30;46.30;;;;;;5134732;27;20667;-50
2023/10/12 02:35:19;;;;;;;0.10;0.10;;;22.30;46.40;;;;;;5123241;27;20214;-46
2023/10/12 02:37:50;;;;;;;0.10;0.10;;;22.30;46.40;;;;;;5103642;28;20280;-51
2023/10/12 02:40:23;;;;;;;0.00;0.00;;;22.30;46.30;;;;;;5114550;28;20193;-54
2023/10/12 02:42:59;;;;;;;0.00;0.00;;;22.30;46.40;;;;;;5113786;27;20189;-53
2023/10/12 02:45:29;;;;;;;0.00;0.00;;;22.30;46.40;;;;;;5114218;28;20214;-48
2023/10/12 02:48:05;;;;;;;0.00;0.00;;;22.30;46.40;;;;;;5107375;27;20253;-50
2023/10/12 02:50:48;;;;;;;0.00;0.00;;;22.30;46.40;;;;;;5093606;28;20254;-44
2023/10/12 02:53:28;;;;;;;0.05;0.05;;;22.30;46.40;;;;;;5106551;27;20189;-56
2023/10/12 02:56:01;;;;;;;0.00;0.00;;;22.30;46.40;;;;;;5113409;28;20217;-54
2023/10/12 02:58:32;;;;;;;0.00;0.00;;;22.30;46.40;;;;;;5114345;28;20189;-53
2023/10/12 03:01:12;;;;;;;0.00;0.00;;;22.30;46.40;;;;;;5109729;28;20190;-54
2023/10/12 03:03:48;;;;;;;0.10;0.10;;;22.40;46.40;;;;;;5109748;27;20190;-51
2023/10/12 03:06:23;;;;;;;0.00;0.00;;;22.30;46.30;;;;;;5113733;27;20217;-46
2023/10/12 03:09:14;;;;;;;0.10;0.10;;;22.30;46.30;;;;;;5113870;27;20239;-53
2023/10/12 03:11:47;;;;;;;0.10;0.10;;;22.40;46.30;;;;;;5113982;28;20593;-54
2023/10/12 03:14:18;;;;;;;0.10;0.10;;;22.40;46.30;;;;;;5105635;27;20214;-56
2023/10/12 03:16:49;;;;;;;0.05;0.05;;;22.40;46.20;;;;;;5093384;28;20259;-51
2023/10/12 03:19:22;;;;;;;0.00;0.00;;;22.40;46.20;;;;;;5113572;28;20201;-56
2023/10/12 03:22:03;;;;;;;0.00;0.00;;;22.40;46.20;;;;;;5113494;28;20190;-56
2023/10/12 03:24:43;;;;;;;0.10;0.10;;;22.40;46.20;;;;;;5113223;28;20680;-54
2023/10/12 03:27:17;;;;;;;0.00;0.00;;;22.40;46.20;;;;;;5099589;28;20251;-52
2023/10/12 03:29:54;;;;;;;0.10;0.10;;;22.40;46.20;;;;;;5113593;28;20201;-56
2023/10/12 03:32:25;;;;;;;0.00;0.00;;;22.30;46.10;;;;;;5112543;28;20269;-55
2023/10/12 03:34:56;;;;;;;0.10;0.10;;;22.40;46.10;;;;;;5107329;28;20692;-56
2023/10/12 03:43:11;;;;;;;0.00;0.00;;;22.40;46.20;;;;;;5101521;27;20201;-45
2023/10/12 03:45:59;;;;;;;0.10;0.10;;;22.40;46.20;;;;;;5112460;27;20228;-44
2023/10/12 03:48:48;;;;;;;0.10;0.10;;;22.40;46.10;;;;;;5103160;27;20246;-52
2023/10/12 03:51:38;;;;;;;0.03;0.03;;;22.40;46.10;;;;;;5112340;28;20225;-47
2023/10/12 03:54:18;;;;;;;0.10;0.10;;;22.50;46.00;;;;;;5112086;28;20241;-53
2023/10/12 03:56:50;;;;;;;0.00;0.00;;;22.40;45.90;;;;;;5113429;28;20197;-55
2023/10/12 03:59:36;;;;;;;0.10;0.10;;;22.40;45.80;;;;;;5113592;27;20197;-54
2023/10/12 04:02:13;;;;;;;0.10;0.10;;;22.40;45.80;;;;;;5113765;28;20229;-54
2023/10/12 04:04:53;;;;;;;0.10;0.10;;;22.40;45.80;;;;;;5113366;28;20360;-53
2023/10/12 04:07:37;;;;;;;0.00;0.00;;;22.50;45.80;;;;;;5113449;28;20447;-57
2023/10/12 04:10:16;;;;;;;0.10;0.10;;;22.40;45.80;;;;;;5093079;28;20649;-44
2023/10/12 04:13:02;;;;;;;0.05;0.05;;;22.50;45.80;;;;;;5092624;28;20221;-53
2023/10/12 04:16:05;;;;;;;0.00;0.00;;;22.40;45.70;;;;;;5103789;28;20213;-50
2023/10/12 04:18:28;;;;;;;0.00;0.00;;;22.40;45.70;;;;;;5113050;28;20728;-52
2023/10/12 04:20:57;;;;;;;0.00;0.00;;;22.40;45.60;;;;;;5112805;28;20657;-55
2023/10/12 04:26:27;;;;;;;0.00;0.00;;;22.40;45.60;;;;;;5112088;28;20220;-56
2023/10/12 04:28:57;;;;;;;0.00;0.00;;;22.40;45.60;;;;;;5113135;28;20197;-57
2023/10/12 04:31:49;;;;;;;0.00;0.00;;;22.40;45.50;;;;;;5112159;28;20249;-56
2023/10/12 04:34:23;;;;;;;0.00;0.00;;;22.40;45.50;;;;;;5112211;28;20577;-55
2023/10/12 04:37:07;;;;;;;0.00;0.00;;;22.40;45.40;;;;;;5111962;28;20199;-55
2023/10/12 04:39:38;;;;;;;0.00;0.00;;;22.30;45.30;;;;;;5112270;28;20225;-56
2023/10/12 04:42:12;;;;;;;0.00;0.00;;;22.40;45.30;;;;;;5111487;28;20261;-54
2023/10/12 04:44:43;;;;;;;0.00;0.00;;;22.30;45.30;;;;;;5112739;28;20213;-54
2023/10/12 04:47:20;;;;;;;0.00;0.00;;;22.30;45.30;;;;;;5112614;28;20201;-55
2023/10/12 04:49:57;;;;;;;0.10;0.10;;;22.30;45.20;;;;;;5111868;28;20197;-50
2023/10/12 04:52:33;;;;;;;0.00;0.00;;;22.20;45.10;;;;;;5106709;27;20745;-52
2023/10/12 04:55:22;;;;;;;0.00;0.00;;;22.20;45.10;;;;;;5107557;28;20302;-50
2023/10/12 05:00:55;;;;;;;0.00;0.00;;;22.20;45.10;;;;;;5090761;28;20752;-46
2023/10/12 05:03:33;;;;;;;0.00;0.00;;;22.20;45.10;;;;;;5105470;28;20191;-50
2023/10/12 05:06:08;;;;;;;0.00;0.00;;;22.20;45.10;;;;;;5093592;28;20274;-52
2023/10/12 05:08:40;;;;;;;0.00;0.00;;;22.10;45.10;;;;;;5106679;28;20193;-50
2023/10/12 05:11:11;;;;;;;0.00;0.00;;;22.10;45.10;;;;;;5102470;28;20209;-46
2023/10/12 05:13:45;;;;;;;0.00;0.00;;;22.10;45.10;;;;;;5121212;27;20189;-46
2023/10/12 05:16:16;;;;;;;0.00;0.00;;;22.10;45.10;;;;;;5125823;27;20257;-43
2023/10/12 05:18:49;;;;;;;0.00;0.00;;;22.10;45.10;;;;;;5103876;28;20635;-49
2023/10/12 05:21:19;;;;;;;0.00;0.00;;;22.00;45.00;;;;;;5111892;28;20535;-49
2023/10/12 05:23:50;;;;;;;0.00;0.00;;;22.00;45.00;;;;;;5111815;27;20594;-52
2023/10/12 05:26:25;;;;;;;0.00;0.00;;;22.00;45.00;;;;;;5112326;28;20249;-50
2023/10/12 05:31:48;;;;;;;0.10;0.10;;;22.00;45.00;;;;;;5095235;28;20232;-42
2023/10/12 05:34:32;;;;;;;0.03;0.03;;;22.00;45.00;;;;;;5110922;28;20218;-51
2023/10/12 05:37:07;;;;;;;0.05;0.05;;;21.90;44.90;;;;;;5111192;28;20280;-45
2023/10/12 05:39:46;;;;;;;0.00;0.00;;;21.90;44.90;;;;;;5111981;27;20265;-51
2023/10/12 05:42:17;;;;;;;0.08;0.08;;;21.90;45.00;;;;;;5092553;28;20201;-55
2023/10/12 05:44:48;;;;;;;0.10;0.10;;;21.80;44.90;;;;;;5095455;28;20576;-54
2023/10/12 05:47:28;;;;;;;0.10;0.10;;;21.80;44.90;;;;;;5106626;28;20212;-54
2023/10/12 05:50:01;;;;;;;0.00;0.00;;;21.80;44.90;;;;;;5091956;28;20533;-54
2023/10/12 05:52:34;;;;;;;0.00;0.00;;;21.80;44.90;;;;;;5093644;28;20308;-53
2023/10/12 05:55:19;;;;;;;0.00;0.00;;;21.70;44.90;;;;;;5115263;28;20633;-47
2023/10/12 05:57:50;;;;;;;0.00;0.00;;;21.70;44.90;;;;;;5112191;28;20197;-52
2023/10/12 06:00:35;;;;;;;0.00;0.00;;;21.70;44.90;;;;;;5115065;27;20220;-49
2023/10/12 06:03:07;;;;;;;0.10;0.10;;;21.70;44.90;;;;;;5121392;27;20198;-50
2023/10/12 06:05:39;;;;;;;0.00;0.00;;;21.70;44.90;;;;;;5135318;27;20216;-51
2023/10/12 06:08:11;;;;;;;0.00;0.00;;;21.70;45.00;;;;;;5116996;27;20197;-54
2023/10/12 06:10:43;;;;;;;0.00;0.00;;;21.60;44.90;;;;;;5106749;28;20194;-51
2023/10/12 06:13:14;;;;;;;0.00;0.00;;;21.60;44.90;;;;;;5102536;28;20285;-54
2023/10/12 06:15:53;;;;;;;0.00;0.00;;;21.60;44.90;;;;;;5114529;28;20214;-54
2023/10/12 06:18:29;;;;;;;0.00;0.00;;;21.60;44.90;;;;;;5102159;27;20204;-55
2023/10/12 06:21:06;;;;;;;0.00;0.00;;;21.60;44.90;;;;;;5113513;28;20197;-55
2023/10/12 06:23:39;;;;;;;0.00;0.00;;;21.50;44.90;;;;;;5109861;28;20190;-51
2023/10/12 06:26:17;;;;;;;0.00;0.00;;;21.50;44.90;;;;;;5094348;28;20639;-55
2023/10/12 06:28:50;;;;;;;0.00;0.00;;;21.50;44.90;;;;;;5106116;27;20648;-58
2023/10/12 06:31:22;;;;;;;0.10;0.10;;;21.50;44.90;;;;;;5114144;28;20312;-55
2023/10/12 06:33:52;;;;;;;0.00;0.00;;;21.40;44.90;;;;;;5114469;28;20228;-55
2023/10/12 06:36:37;;;;;;;0.00;0.00;;;21.50;45.00;;;;;;5113030;28;20636;-55
2023/10/12 06:42:09;;;;;;;0.00;0.00;;;21.40;45.00;;;;;;5118988;27;20567;-54
2023/10/12 06:44:40;;;;;;;0.00;0.00;;;21.40;45.00;;;;;;5094122;28;20619;-53
2023/10/12 06:50:20;;;;;;;0.10;0.10;;;21.40;45.00;;;;;;5107960;27;21105;-49
2023/10/12 06:52:57;;;;;;;0.10;0.10;;;21.30;45.60;;;;;;5108440;28;20256;-51
2023/10/12 06:55:29;;;;;;;0.00;0.00;;;21.30;45.00;;;;;;5108640;28;20361;-55
2023/10/12 06:58:02;;;;;;;0.08;0.08;;;21.30;44.90;;;;;;5109022;28;20252;-53
2023/10/12 07:00:36;;;;;;;0.08;0.08;;;21.30;45.00;;;;;;5108690;28;20189;-54
2023/10/12 07:03:12;;;;;;;0.03;0.03;;;21.30;45.00;;;;;;5108681;28;20507;-52
2023/10/12 07:05:46;;;;;;;0.00;0.00;;;21.30;45.00;;;;;;5107841;28;20249;-54
2023/10/12 07:08:17;;;;;;;0.00;0.00;;;21.20;44.90;;;;;;5095836;28;20221;-55
2023/10/12 07:10:59;;;;;;;0.10;0.10;;;21.20;45.00;;;;;;5091791;28;20754;-54
2023/10/12 07:13:29;;;;;;;0.00;0.00;;;21.20;45.00;;;;;;5107199;28;20649;-51
2023/10/12 07:16:01;;;;;;;0.00;0.00;;;21.20;45.00;;;;;;5107429;28;20282;-55
2023/10/12 07:18:34;;;;;;;0.00;0.00;;;21.20;45.00;;;;;;5087984;28;20301;-53
2023/10/12 07:21:19;;;;;;;0.00;0.00;;;21.10;45.00;;;;;;5087671;28;20206;-55
2023/10/12 07:23:52;;;;;;;0.00;0.00;;;21.10;45.00;;;;;;5087656;28;20190;-54
2023/10/12 07:26:24;;;;;;;0.00;0.00;;;21.10;45.00;;;;;;5087560;28;20190;-52
2023/10/12 07:28:55;;;;;;;0.00;0.00;;;21.10;45.10;;;;;;5088543;28;20225;-50
2023/10/12 07:31:38;;;;;;;0.10;0.10;;;21.10;45.10;;;;;;5087667;28;20196;-52
2023/10/12 07:34:14;;;;;;;0.10;0.10;;;21.10;45.10;;;;;;5087206;28;20239;-55
2023/10/12 07:36:57;;;;;;;0.00;0.00;;;21.10;45.10;;;;;;5095888;28;20189;-53
2023/10/12 07:39:38;;;;;;;0.00;0.00;;;21.10;45.00;;;;;;5097711;28;20198;-53
2023/10/12 07:42:12;;;;;;;0.00;0.00;;;21.00;45.00;;;;;;5087374;28;20206;-50
2023/10/12 07:44:43;;;;;;;0.10;0.10;;;21.00;45.00;;;;;;5087021;28;20698;-53
2023/10/12 07:47:18;;;;;;;0.00;0.00;;;21.00;45.00;;;;;;5087338;28;20201;-53
2023/10/12 07:49:57;;;;;;;0.10;0.10;;;20.90;44.90;;;;;;5087153;28;20226;-55
2023/10/12 07:52:46;;;;;;;0.00;0.00;;;20.90;45.00;;;;;;5092996;28;20198;-56
2023/10/12 07:55:18;;;;;;;0.10;0.10;;;20.90;45.00;;;;;;5107745;28;20221;-51
2023/10/12 07:57:49;;;;;;;0.10;0.10;;;20.90;45.00;;;;;;5107747;28;20193;-55
2023/10/12 08:00:41;;;;;;;0.00;0.00;;;20.90;45.00;;;;;;5100459;28;20723;-45
2023/10/12 08:03:19;;;;;;;0.00;0.00;;;20.80;45.00;;;;;;5081625;28;20207;-53
2023/10/12 08:06:06;;;;;;;0.10;0.10;;;20.80;45.00;;;;;;5073361;28;20215;-52
2023/10/12 08:08:40;;;;;;;0.10;0.10;;;20.80;45.10;;;;;;5086241;28;20214;-55
2023/10/12 08:11:18;;;;;;;0.10;0.10;;;20.80;45.10;;;;;;5090706;28;20686;-56
2023/10/12 08:13:54;;;;;;;0.00;0.00;;;20.70;45.10;;;;;;5076546;28;20570;-54
2023/10/12 08:16:37;;;;;;;0.10;0.10;;;20.70;45.10;;;;;;5078205;28;20197;-47
2023/10/12 08:19:28;;;;;;;0.03;0.03;;;20.70;45.10;;;;;;5081064;28;20605;-54
2023/10/12 08:22:08;;;;;;;0.00;0.00;;;20.70;45.10;;;;;;5075087;28;20202;-55
2023/10/12 08:24:41;;;;;;;0.00;0.00;;;20.70;45.10;;;;;;5073080;28;20210;-56
2023/10/12 08:27:18;;;;;;;0.10;0.10;;;20.60;45.00;;;;;;5073043;28;20199;-50
2023/10/12 08:30:14;;;;;;;0.10;0.10;;;20.70;45.10;;;;;;5080812;28;20589;-50
2023/10/12 08:32:55;;;;;;;0.08;0.08;;;20.60;45.10;;;;;;5093898;28;20583;-53
2023/10/12 08:35:38;;;;;;;0.00;0.00;;;20.60;45.10;;;;;;5079533;28;20404;-55
2023/10/12 08:38:12;;;;;;;0.00;0.00;;;20.60;45.20;;;;;;5087089;28;20198;-51
2023/10/12 08:43:48;;;;;;;0.00;0.00;;;20.50;45.30;;;;;;5068512;28;20251;-54
2023/10/12 08:46:47;;;;;;;0.00;0.00;;;20.50;45.30;;;;;;5088459;28;20653;-41
2023/10/12 08:52:08;;;;;;;0.10;0.10;;;20.50;45.40;;;;;;5092759;28;20213;-46
2023/10/12 08:54:40;;;;;;;0.10;0.10;;;20.50;45.40;;;;;;5072825;28;20708;-47
2023/10/12 08:57:33;;;;;;;0.10;0.10;;;20.50;45.50;;;;;;5083038;28;20226;-46
2023/10/12 09:02:58;;;;;;;0.10;0.10;;;20.40;45.50;;;;;;5087684;28;20264;-55
2023/10/12 09:05:30;;;;;;;0.00;0.00;;;20.40;45.50;;;;;;5082582;28;20233;-54
2023/10/12 09:11:02;;;;;;;0.10;0.10;;;20.40;45.50;;;;;;5071832;28;20198;-56
2023/10/12 09:13:34;;;;;;;0.10;0.10;;;20.40;45.50;;;;;;5071428;28;20670;-54
2023/10/12 09:16:07;;;;;;;0.00;0.00;;;20.30;45.40;;;;;;5074135;28;20211;-50
2023/10/12 09:18:45;;;;;;;0.10;0.10;;;20.30;45.40;;;;;;5092456;28;20198;-55
2023/10/12 09:21:24;;;;;;;0.00;0.00;;;20.30;45.50;;;;;;5092674;28;20638;-56
2023/10/12 09:23:59;;;;;;;0.10;0.10;;;20.30;45.40;;;;;;5092026;28;20642;-56
2023/10/12 09:26:33;;;;;;;0.10;0.10;;;20.30;45.40;;;;;;5087728;28;20195;-54
2023/10/12 09:29:20;;;;;;;0.03;0.03;;;20.30;45.50;;;;;;5091418;28;20615;-55
2023/10/12 09:32:19;;;;;;;0.10;0.10;;;20.30;45.50;;;;;;5097003;28;20190;-47
2023/10/12 09:35:11;;;;;;;0.10;0.10;;;20.30;45.60;;;;;;5111419;28;20274;-54
2023/10/12 09:37:51;;;;;;;0.10;0.10;;;20.20;45.60;;;;;;5111344;28;20198;-43
2023/10/12 09:40:27;;;;;;;0.00;0.00;;;20.20;45.60;;;;;;5078178;28;20221;-54
2023/10/12 09:43:01;;;;;;;0.00;0.00;;;20.20;45.60;;;;;;5089967;28;20198;-55
2023/10/12 09:45:41;;;;;;;0.00;0.00;;;20.20;45.60;;;;;;5091701;28;20668;-42
2023/10/12 09:48:18;;;;;;;0.10;0.10;;;20.20;45.70;;;;;;5088415;28;20237;-53
2023/10/12 09:50:53;;;;;;;0.00;0.00;;;20.20;45.60;;;;;;5091471;28;20225;-48
2023/10/12 09:53:28;;;;;;;0.10;0.10;;;20.20;45.60;;;;;;5083912;28;20194;-52
2023/10/12 09:56:24;;;;;;;0.03;0.03;;;20.20;45.60;;;;;;5071855;28;20217;-44
2023/10/12 09:59:04;;;;;;;0.00;0.00;;;20.10;45.60;;;;;;5077326;28;20182;-47
2023/10/12 10:01:49;;;;;;;0.10;0.10;;;20.10;45.60;;;;;;5092894;28;20611;-52
2023/10/12 10:07:24;;;;;;;0.10;0.10;;;20.10;45.60;;;;;;5095645;28;20198;-49
2023/10/12 10:09:57;;;;;;;0.03;0.03;;;20.10;45.60;;;;;;5091341;28;20229;-43
2023/10/12 10:12:31;;;;;;;0.08;0.08;;;20.00;45.60;;;;;;5092175;28;20462;-44
2023/10/12 10:15:10;;;;;;;0.10;0.10;;;20.00;45.60;;;;;;5087905;28;20221;-46
2023/10/12 10:17:52;;;;;;;0.10;0.10;;;20.00;45.60;;;;;;5090925;28;20190;-42
2023/10/12 10:20:46;;;;;;;0.10;0.10;;;20.00;45.60;;;;;;5078543;28;20561;-47
2023/10/12 10:23:19;;;;;;;0.00;0.00;;;20.00;45.60;;;;;;5086053;28;20637;-50
2023/10/12 10:26:16;;;;;;;0.00;0.00;;;20.00;45.60;;;;;;5090695;28;20218;-49
2023/10/12 10:28:54;;;;;;;0.00;0.00;;;20.00;45.60;;;;;;5091076;28;20480;-51
2023/10/12 10:31:34;;;;;;;0.10;0.10;;;20.00;45.60;;;;;;5090670;28;20281;-49
2023/10/12 10:34:08;;;;;;;0.03;0.03;;;19.90;45.60;;;;;;5069838;28;20561;-52
2023/10/12 10:36:38;;;;;;;0.00;0.00;;;19.90;45.60;;;;;;5073183;28;20646;-52
2023/10/12 10:39:28;;;;;;;0.10;0.10;;;19.90;45.60;;;;;;5088027;28;20246;-50
2023/10/12 10:42:07;;;;;;;0.10;0.10;;;19.90;45.60;;;;;;5079927;28;20191;-50
2023/10/12 10:44:44;;;;;;;0.10;0.10;;;19.90;45.60;;;;;;5080120;28;20209;-51
2023/10/12 10:47:15;;;;;;;0.10;0.10;;;19.80;45.60;;;;;;5079438;28;20186;-53
2023/10/12 10:49:49;;;;;;;0.05;0.05;;;19.80;45.60;;;;;;5082570;28;20228;-51
2023/10/12 10:52:22;;;;;;;0.10;0.10;;;19.80;45.60;;;;;;5079716;28;20274;-51
2023/10/12 10:55:01;;;;;;;0.00;0.00;;;19.80;45.60;;;;;;5079205;28;20250;-50
2023/10/12 10:57:37;;;;;;;0.00;0.00;;;19.80;45.60;;;;;;5079425;28;20193;-51
2023/10/12 11:00:17;;;;;;;0.10;0.10;;;19.80;45.60;;;;;;5080746;28;20362;-52
2023/10/12 11:02:52;;;;;;;0.00;0.00;;;19.70;45.60;;;;;;5080655;28;20631;-56
2023/10/12 11:05:28;;;;;;;0.00;0.00;;;19.70;45.70;;;;;;5082065;28;20746;-55
2023/10/12 11:08:18;;;;;;;0.10;0.10;;;19.70;45.60;;;;;;5079201;28;20218;-56
2023/10/12 11:13:38;;;;;;;0.00;0.00;;;19.70;45.60;;;;;;5082028;28;20680;-55
2023/10/12 11:16:21;;;;;;;0.10;0.10;;;19.70;45.60;;;;;;5081231;28;20694;-53
2023/10/12 11:18:54;;;;;;;0.10;0.10;;;19.60;45.60;;;;;;5081706;28;20191;-53
2023/10/12 11:21:27;;;;;;;0.00;0.00;;;19.70;45.70;;;;;;5080232;28;20191;-50
2023/10/12 11:24:09;;;;;;;0.10;0.10;;;19.60;45.70;;;;;;5079471;28;20226;-55
2023/10/12 11:26:53;;;;;;;0.00;0.00;;;19.60;45.70;;;;;;5079959;28;20218;-55
2023/10/12 11:29:25;;;;;;;0.10;0.10;;;19.60;45.70;;;;;;5080621;28;20230;-55
2023/10/12 11:32:10;;;;;;;0.00;0.00;;;19.50;45.70;;;;;;5079385;28;20198;-46
2023/10/12 11:34:50;;;;;;;0.10;0.10;;;19.50;45.70;;;;;;5079654;28;20569;-55
2023/10/12 11:37:25;;;;;;;0.10;0.10;;;19.50;45.70;;;;;;5085649;28;20226;-52
2023/10/12 11:39:57;;;;;;;0.10;0.10;;;19.50;45.70;;;;;;5082831;28;20689;-56
2023/10/12 11:42:28;;;;;;;0.10;0.10;;;19.50;45.70;;;;;;5076011;28;20651;-54
2023/10/12 11:45:08;;;;;;;0.00;0.00;;;19.50;45.80;;;;;;5076663;28;20253;-52
2023/10/12 11:47:43;;;;;;;0.00;0.00;;;19.40;45.70;;;;;;5088882;28;20206;-54
2023/10/12 11:50:13;;;;;;;0.00;0.00;;;19.40;45.80;;;;;;5094333;28;20221;-50
2023/10/12 11:52:50;;;;;;;0.00;0.00;;;19.40;45.80;;;;;;5094103;28;20198;-52
2023/10/12 11:55:27;;;;;;;0.10;0.10;;;19.40;45.80;;;;;;5094413;28;20764;-53
2023/10/12 11:57:59;;;;;;;0.10;0.10;;;19.40;45.80;;;;;;5094622;28;20228;-51
2023/10/12 12:00:36;;;;;;;0.10;0.10;;;19.40;45.80;;;;;;5094059;28;20624;-54
2023/10/12 12:03:08;;;;;;;0.10;0.10;;;19.30;45.80;;;;;;5093991;28;20247;-55
2023/10/12 12:05:39;;;;;;;0.10;0.10;;;19.30;45.80;;;;;;5093720;28;20297;-54
2023/10/12 12:08:14;;;;;;;0.00;0.00;;;19.30;45.80;;;;;;5093873;28;20277;-51
2023/10/12 12:10:54;;;;;;;0.00;0.00;;;19.30;45.80;;;;;;5094296;28;20226;-53
2023/10/12 12:13:25;;;;;;;0.10;0.10;;;19.30;45.80;;;;;;5088847;28;20204;-48
2023/10/12 12:15:56;;;;;;;0.10;0.10;;;19.30;45.80;;;;;;5094354;28;20214;-55
2023/10/12 12:18:27;;;;;;;0.10;0.10;;;19.20;45.80;;;;;;5094214;28;20200;-53
2023/10/12 12:20:58;;;;;;;0.00;0.00;;;19.20;45.80;;;;;;5094044;28;20204;-56
2023/10/12 12:23:34;;;;;;;0.00;0.00;;;19.20;45.80;;;;;;5094018;28;20194;-56
2023/10/12 12:26:07;;;;;;;0.00;0.00;;;19.20;45.80;;;;;;5094059;28;20639;-53
2023/10/12 12:28:45;;;;;;;0.10;0.10;;;19.20;45.80;;;;;;5093978;28;20554;-56
2023/10/12 12:31:16;;;;;;;0.10;0.10;;;19.20;45.80;;;;;;5093917;28;20312;-53
2023/10/12 12:33:47;;;;;;;0.05;0.05;;;19.10;45.80;;;;;;5094503;28;20198;-50
2023/10/12 12:36:21;;;;;;;0.00;0.00;;;19.20;45.90;;;;;;5094029;28;20237;-56
2023/10/12 12:38:57;;;;;;;0.10;0.10;;;19.10;45.90;;;;;;5093716;28;20194;-51
2023/10/12 12:41:30;;;;;;;0.10;0.10;;;19.10;45.90;;;;;;5093142;28;20198;-49
2023/10/12 12:44:00;;;;;;;0.00;0.00;;;19.10;45.90;;;;;;5091980;28;20255;-41
2023/10/12 12:46:32;;;;;;;0.00;0.00;;;19.10;45.90;;;;;;5086455;28;20279;-47
2023/10/12 12:49:03;;;;;;;0.00;0.00;;;19.10;45.90;;;;;;5073002;28;20202;-46
2023/10/12 12:51:34;;;;;;;0.10;0.10;;;19.10;46.00;;;;;;5072980;28;20275;-49
2023/10/12 12:54:07;;;;;;;0.10;0.10;;;19.00;45.90;;;;;;5088721;28;20198;-42
2023/10/12 12:56:38;;;;;;;0.10;0.10;;;19.00;45.90;;;;;;5092734;28;20190;-47
2023/10/12 12:59:10;;;;;;;0.00;0.00;;;19.00;45.90;;;;;;5093110;28;20233;-42
2023/10/12 13:01:45;;;;;;;0.10;0.10;;;19.00;46.00;;;;;;5092462;28;20780;-45
2023/10/12 13:04:17;;;;;;;0.10;0.10;;;19.00;46.00;;;;;;5093044;28;20185;-48
2023/10/12 13:06:48;;;;;;;0.10;0.10;;;19.00;46.00;;;;;;5093277;28;20269;-41
2023/10/12 13:09:33;;;;;;;0.08;0.08;;;18.90;45.90;;;;;;5093478;28;20626;-44
2023/10/12 13:12:05;;;;;;;0.10;0.10;;;18.90;46.00;;;;;;5093461;28;20190;-45
2023/10/12 13:14:35;;;;;;;0.10;0.10;;;18.90;46.00;;;;;;5093276;28;20214;-54
2023/10/12 13:17:07;;;;;;;0.00;0.00;;;18.90;46.00;;;;;;5085502;28;20209;-50
2023/10/12 13:19:38;;;;;;;0.00;0.00;;;18.90;46.10;;;;;;5072554;28;20203;-46
2023/10/12 13:22:08;;;;;;;0.10;0.10;;;18.90;46.00;;;;;;5072441;28;20206;-49
2023/10/12 13:24:41;;;;;;;0.03;0.03;;;18.90;46.10;;;;;;5072309;28;20237;-49
2023/10/12 13:27:19;;;;;;;0.10;0.10;;;18.90;46.10;;;;;;5072387;28;20261;-47
2023/10/12 13:29:49;;;;;;;0.10;0.10;;;18.90;46.10;;;;;;5072447;28;20202;-44
2023/10/12 13:32:21;;;;;;;0.00;0.00;;;18.80;46.00;;;;;;5073173;28;20195;-46
2023/10/12 13:34:52;;;;;;;0.10;0.10;;;18.80;46.10;;;;;;5072145;28;20210;-50
2023/10/12 13:37:22;;;;;;;0.10;0.10;;;18.80;46.10;;;;;;5074352;28;20199;-51
2023/10/12 13:39:55;;;;;;;0.00;0.00;;;18.80;46.10;;;;;;5091671;28;20240;-49
2023/10/12 13:42:28;;;;;;;0.00;0.00;;;18.80;46.10;;;;;;5091987;28;20202;-52
2023/10/12 13:45:01;;;;;;;0.10;0.10;;;18.70;46.10;;;;;;5091964;28;20659;-55
2023/10/12 13:47:32;;;;;;;0.00;0.00;;;18.70;46.10;;;;;;5081291;28;20289;-54
2023/10/12 13:50:05;;;;;;;0.00;0.00;;;18.70;46.10;;;;;;5072301;28;20226;-55
2023/10/12 13:52:37;;;;;;;0.00;0.00;;;18.70;46.10;;;;;;5072399;28;20199;-49
2023/10/12 13:55:12;;;;;;;0.00;0.00;;;18.70;46.20;;;;;;5072276;28;20211;-55
2023/10/12 13:57:55;;;;;;;0.00;0.00;;;18.70;46.20;;;;;;5071495;28;20285;-52
2023/10/12 14:00:27;;;;;;;0.10;0.10;;;18.70;46.20;;;;;;5071875;28;20312;-56
2023/10/12 14:02:58;;;;;;;0.00;0.00;;;18.70;46.20;;;;;;5071563;28;20213;-54
2023/10/12 14:05:29;;;;;;;0.00;0.00;;;18.60;46.20;;;;;;5071843;28;20257;-50
2023/10/12 14:08:00;;;;;;;0.10;0.10;;;18.70;46.20;;;;;;5072103;28;20195;-54
2023/10/12 14:10:33;;;;;;;0.00;0.00;;;18.60;46.20;;;;;;5071700;28;20219;-46